sensor_id;sensor_type;location;lat;lon;timestamp;P1;durP1;ratioP1;P2;durP2;ratioP2
22320;SDS011;11328;53.928;18.522;2022-07-12T00:02:16;10.23;;;3.17;;
22320;SDS011;11328;53.928;18.522;2022-07-12T00:04:43;8.45;;;2.92;;
22320;SDS011;11328;53.928;18.522;2022-07-12T00:07:10;9.13;;;3.33;;
22320;SDS011;11328;53.928;18.522;2022-07-12T00:09:37;6.68;;;2.85;;
22320;SDS011;11328;53.928;18.522;2022-07-12T00:12:04;9.13;;;3.22;;
22320;SDS011;11328;53.928;18.522;2022-07-12T00:14:31;7.32;;;3.00;;
22320;SDS011;11328;53.928;18.522;2022-07-12T00:16:58;8.57;;;3.30;;
22320;SDS011;11328;53.928;18.522;2022-07-12T00:19:28;6.97;;;3.20;;
22320;SDS011;11328;53.928;18.522;2022-07-12T00:21:55;8.98;;;3.10;;
22320;SDS011;11328;53.928;18.522;2022-07-12T00:24:22;7.10;;;3.10;;
22320;SDS011;11328;53.928;18.522;2022-07-12T00:26:49;11.50;;;3.45;;
22320;SDS011;11328;53.928;18.522;2022-07-12T00:29:16;7.85;;;3.13;;
22320;SDS011;11328;53.928;18.522;2022-07-12T00:31:43;9.85;;;3.15;;
22320;SDS011;11328;53.928;18.522;2022-07-12T00:34:10;6.28;;;3.00;;
22320;SDS011;11328;53.928;18.522;2022-07-12T00:36:37;10.18;;;3.10;;
22320;SDS011;11328;53.928;18.522;2022-07-12T00:39:04;6.68;;;3.15;;
22320;SDS011;11328;53.928;18.522;2022-07-12T00:41:31;10.35;;;3.20;;
22320;SDS011;11328;53.928;18.522;2022-07-12T00:43:58;12.82;;;3.38;;
22320;SDS011;11328;53.928;18.522;2022-07-12T00:46:25;9.55;;;3.30;;
22320;SDS011;11328;53.928;18.522;2022-07-12T00:48:52;12.05;;;3.58;;
22320;SDS011;11328;53.928;18.522;2022-07-12T00:51:20;7.50;;;3.38;;
22320;SDS011;11328;53.928;18.522;2022-07-12T00:53:47;10.43;;;3.28;;
22320;SDS011;11328;53.928;18.522;2022-07-12T00:56:17;9.32;;;3.28;;
22320;SDS011;11328;53.928;18.522;2022-07-12T00:58:44;11.63;;;3.80;;
22320;SDS011;11328;53.928;18.522;2022-07-12T01:01:11;8.52;;;3.60;;
22320;SDS011;11328;53.928;18.522;2022-07-12T01:03:39;12.32;;;3.70;;
22320;SDS011;11328;53.928;18.522;2022-07-12T01:06:07;10.52;;;3.17;;
22320;SDS011;11328;53.928;18.522;2022-07-12T01:08:34;10.75;;;3.70;;
22320;SDS011;11328;53.928;18.522;2022-07-12T01:11:02;10.55;;;3.40;;
22320;SDS011;11328;53.928;18.522;2022-07-12T01:13:30;11.70;;;3.70;;
22320;SDS011;11328;53.928;18.522;2022-07-12T01:15:57;16.35;;;3.88;;
22320;SDS011;11328;53.928;18.522;2022-07-12T01:18:24;9.38;;;3.42;;
22320;SDS011;11328;53.928;18.522;2022-07-12T01:20:54;9.82;;;3.72;;
22320;SDS011;11328;53.928;18.522;2022-07-12T01:23:22;10.77;;;3.80;;
22320;SDS011;11328;53.928;18.522;2022-07-12T01:25:51;11.57;;;4.05;;
22320;SDS011;11328;53.928;18.522;2022-07-12T01:28:18;9.35;;;3.60;;
22320;SDS011;11328;53.928;18.522;2022-07-12T01:30:45;12.98;;;3.95;;
22320;SDS011;11328;53.928;18.522;2022-07-12T01:33:15;9.32;;;3.90;;
22320;SDS011;11328;53.928;18.522;2022-07-12T01:35:43;10.05;;;3.80;;
22320;SDS011;11328;53.928;18.522;2022-07-12T01:38:10;11.45;;;4.10;;
22320;SDS011;11328;53.928;18.522;2022-07-12T01:40:37;12.90;;;4.20;;
22320;SDS011;11328;53.928;18.522;2022-07-12T01:43:04;14.93;;;4.10;;
22320;SDS011;11328;53.928;18.522;2022-07-12T01:45:32;13.82;;;4.32;;
22320;SDS011;11328;53.928;18.522;2022-07-12T01:47:59;8.73;;;3.72;;
22320;SDS011;11328;53.928;18.522;2022-07-12T01:50:26;9.75;;;3.60;;
22320;SDS011;11328;53.928;18.522;2022-07-12T01:52:53;9.68;;;4.25;;
22320;SDS011;11328;53.928;18.522;2022-07-12T01:55:21;12.55;;;3.95;;
22320;SDS011;11328;53.928;18.522;2022-07-12T01:57:49;10.18;;;4.00;;
22320;SDS011;11328;53.928;18.522;2022-07-12T02:00:17;11.45;;;4.22;;
22320;SDS011;11328;53.928;18.522;2022-07-12T02:02:46;9.50;;;4.20;;
22320;SDS011;11328;53.928;18.522;2022-07-12T02:05:14;11.00;;;4.13;;
22320;SDS011;11328;53.928;18.522;2022-07-12T02:07:41;9.38;;;4.10;;
22320;SDS011;11328;53.928;18.522;2022-07-12T02:10:08;13.57;;;3.95;;
22320;SDS011;11328;53.928;18.522;2022-07-12T02:12:35;9.23;;;3.78;;
22320;SDS011;11328;53.928;18.522;2022-07-12T02:15:04;8.50;;;4.47;;
22320;SDS011;11328;53.928;18.522;2022-07-12T02:17:32;12.45;;;4.05;;
22320;SDS011;11328;53.928;18.522;2022-07-12T02:20:00;11.68;;;4.13;;
22320;SDS011;11328;53.928;18.522;2022-07-12T02:22:27;15.05;;;4.38;;
22320;SDS011;11328;53.928;18.522;2022-07-12T02:24:54;13.73;;;4.07;;
22320;SDS011;11328;53.928;18.522;2022-07-12T02:27:21;9.13;;;4.13;;
22320;SDS011;11328;53.928;18.522;2022-07-12T02:29:48;9.50;;;4.45;;
22320;SDS011;11328;53.928;18.522;2022-07-12T02:32:15;13.73;;;4.25;;
22320;SDS011;11328;53.928;18.522;2022-07-12T02:34:42;10.10;;;4.35;;
22320;SDS011;11328;53.928;18.522;2022-07-12T02:37:09;12.98;;;4.38;;
22320;SDS011;11328;53.928;18.522;2022-07-12T02:39:36;11.27;;;4.53;;
22320;SDS011;11328;53.928;18.522;2022-07-12T02:42:03;9.63;;;4.85;;
22320;SDS011;11328;53.928;18.522;2022-07-12T02:44:31;11.48;;;4.70;;
22320;SDS011;11328;53.928;18.522;2022-07-12T02:46:59;19.85;;;4.78;;
22320;SDS011;11328;53.928;18.522;2022-07-12T02:49:26;13.40;;;5.25;;
22320;SDS011;11328;53.928;18.522;2022-07-12T02:51:53;12.45;;;4.90;;
22320;SDS011;11328;53.928;18.522;2022-07-12T02:54:20;10.52;;;4.57;;
22320;SDS011;11328;53.928;18.522;2022-07-12T02:56:47;9.73;;;4.93;;
22320;SDS011;11328;53.928;18.522;2022-07-12T02:59:14;11.27;;;4.72;;
22320;SDS011;11328;53.928;18.522;2022-07-12T03:01:42;12.60;;;4.85;;
22320;SDS011;11328;53.928;18.522;2022-07-12T03:04:09;12.60;;;4.85;;
22320;SDS011;11328;53.928;18.522;2022-07-12T03:06:36;13.55;;;4.75;;
22320;SDS011;11328;53.928;18.522;2022-07-12T03:09:03;14.52;;;5.03;;
22320;SDS011;11328;53.928;18.522;2022-07-12T03:11:30;11.13;;;5.13;;
22320;SDS011;11328;53.928;18.522;2022-07-12T03:13:57;11.60;;;4.85;;
22320;SDS011;11328;53.928;18.522;2022-07-12T03:16:24;15.55;;;5.10;;
22320;SDS011;11328;53.928;18.522;2022-07-12T03:18:51;13.00;;;5.60;;
22320;SDS011;11328;53.928;18.522;2022-07-12T03:21:18;14.90;;;4.93;;
22320;SDS011;11328;53.928;18.522;2022-07-12T03:23:45;8.52;;;4.55;;
22320;SDS011;11328;53.928;18.522;2022-07-12T03:26:11;13.95;;;5.03;;
22320;SDS011;11328;53.928;18.522;2022-07-12T03:28:38;11.45;;;4.95;;
22320;SDS011;11328;53.928;18.522;2022-07-12T03:31:05;15.23;;;5.50;;
22320;SDS011;11328;53.928;18.522;2022-07-12T03:33:33;8.68;;;5.10;;
22320;SDS011;11328;53.928;18.522;2022-07-12T03:36:00;11.65;;;4.95;;
22320;SDS011;11328;53.928;18.522;2022-07-12T03:38:27;13.20;;;5.15;;
22320;SDS011;11328;53.928;18.522;2022-07-12T03:40:54;13.65;;;5.10;;
22320;SDS011;11328;53.928;18.522;2022-07-12T03:43:21;12.13;;;5.15;;
22320;SDS011;11328;53.928;18.522;2022-07-12T03:45:48;12.23;;;5.20;;
22320;SDS011;11328;53.928;18.522;2022-07-12T03:48:15;14.90;;;5.03;;
22320;SDS011;11328;53.928;18.522;2022-07-12T03:50:42;11.40;;;4.95;;
22320;SDS011;11328;53.928;18.522;2022-07-12T03:53:12;10.70;;;4.85;;
22320;SDS011;11328;53.928;18.522;2022-07-12T03:55:38;9.55;;;4.95;;
22320;SDS011;11328;53.928;18.522;2022-07-12T03:58:05;12.48;;;5.18;;
22320;SDS011;11328;53.928;18.522;2022-07-12T04:00:32;12.43;;;4.93;;
22320;SDS011;11328;53.928;18.522;2022-07-12T04:03:00;13.93;;;5.20;;
22320;SDS011;11328;53.928;18.522;2022-07-12T04:05:27;14.02;;;5.10;;
22320;SDS011;11328;53.928;18.522;2022-07-12T04:07:54;11.30;;;4.90;;
22320;SDS011;11328;53.928;18.522;2022-07-12T04:10:21;13.15;;;4.80;;
22320;SDS011;11328;53.928;18.522;2022-07-12T04:12:48;13.25;;;4.80;;
22320;SDS011;11328;53.928;18.522;2022-07-12T04:15:16;9.05;;;4.75;;
22320;SDS011;11328;53.928;18.522;2022-07-12T04:17:43;9.38;;;5.10;;
22320;SDS011;11328;53.928;18.522;2022-07-12T04:20:10;12.55;;;4.97;;
22320;SDS011;11328;53.928;18.522;2022-07-12T04:22:38;15.30;;;5.05;;
22320;SDS011;11328;53.928;18.522;2022-07-12T04:25:06;9.93;;;4.80;;
22320;SDS011;11328;53.928;18.522;2022-07-12T04:27:34;9.18;;;5.03;;
22320;SDS011;11328;53.928;18.522;2022-07-12T04:30:03;12.18;;;4.80;;
22320;SDS011;11328;53.928;18.522;2022-07-12T04:32:30;10.35;;;4.57;;
22320;SDS011;11328;53.928;18.522;2022-07-12T04:34:57;12.15;;;4.57;;
22320;SDS011;11328;53.928;18.522;2022-07-12T04:37:25;11.68;;;4.30;;
22320;SDS011;11328;53.928;18.522;2022-07-12T04:39:52;9.10;;;4.03;;
22320;SDS011;11328;53.928;18.522;2022-07-12T04:42:19;9.57;;;3.92;;
22320;SDS011;11328;53.928;18.522;2022-07-12T04:44:46;7.05;;;4.10;;
22320;SDS011;11328;53.928;18.522;2022-07-12T04:47:13;11.38;;;4.10;;
22320;SDS011;11328;53.928;18.522;2022-07-12T04:49:40;9.43;;;3.70;;
22320;SDS011;11328;53.928;18.522;2022-07-12T04:52:07;9.82;;;3.55;;
22320;SDS011;11328;53.928;18.522;2022-07-12T04:54:33;9.38;;;3.30;;
22320;SDS011;11328;53.928;18.522;2022-07-12T04:57:00;9.68;;;3.50;;
22320;SDS011;11328;53.928;18.522;2022-07-12T04:59:27;5.85;;;2.75;;
22320;SDS011;11328;53.928;18.522;2022-07-12T05:01:55;8.45;;;2.90;;
22320;SDS011;11328;53.928;18.522;2022-07-12T05:04:22;9.55;;;3.05;;
22320;SDS011;11328;53.928;18.522;2022-07-12T05:06:49;7.75;;;2.88;;
22320;SDS011;11328;53.928;18.522;2022-07-12T05:09:16;6.13;;;2.70;;
22320;SDS011;11328;53.928;18.522;2022-07-12T05:11:43;6.10;;;2.33;;
22320;SDS011;11328;53.928;18.522;2022-07-12T05:14:10;8.63;;;2.70;;
22320;SDS011;11328;53.928;18.522;2022-07-12T05:16:37;5.22;;;2.30;;
22320;SDS011;11328;53.928;18.522;2022-07-12T05:19:04;6.50;;;2.53;;
22320;SDS011;11328;53.928;18.522;2022-07-12T05:21:31;7.45;;;2.30;;
22320;SDS011;11328;53.928;18.522;2022-07-12T05:24:01;5.57;;;2.15;;
22320;SDS011;11328;53.928;18.522;2022-07-12T05:26:32;5.32;;;2.40;;
22320;SDS011;11328;53.928;18.522;2022-07-12T05:28:59;6.47;;;2.30;;
22320;SDS011;11328;53.928;18.522;2022-07-12T05:31:26;7.43;;;2.38;;
22320;SDS011;11328;53.928;18.522;2022-07-12T05:33:56;7.82;;;1.92;;
22320;SDS011;11328;53.928;18.522;2022-07-12T05:36:23;5.53;;;2.00;;
22320;SDS011;11328;53.928;18.522;2022-07-12T05:38:50;4.25;;;1.65;;
22320;SDS011;11328;53.928;18.522;2022-07-12T05:41:17;4.50;;;1.60;;
22320;SDS011;11328;53.928;18.522;2022-07-12T05:43:44;3.83;;;1.60;;
22320;SDS011;11328;53.928;18.522;2022-07-12T05:46:11;5.57;;;1.75;;
22320;SDS011;11328;53.928;18.522;2022-07-12T05:48:38;4.55;;;1.70;;
22320;SDS011;11328;53.928;18.522;2022-07-12T05:51:05;2.70;;;1.38;;
22320;SDS011;11328;53.928;18.522;2022-07-12T05:53:50;4.95;;;1.45;;
22320;SDS011;11328;53.928;18.522;2022-07-12T05:56:17;4.25;;;1.38;;
22320;SDS011;11328;53.928;18.522;2022-07-12T05:58:44;3.00;;;1.55;;
22320;SDS011;11328;53.928;18.522;2022-07-12T06:01:11;2.63;;;1.52;;
22320;SDS011;11328;53.928;18.522;2022-07-12T06:03:38;3.88;;;1.50;;
22320;SDS011;11328;53.928;18.522;2022-07-12T06:06:05;6.28;;;1.50;;
22320;SDS011;11328;53.928;18.522;2022-07-12T06:08:32;2.58;;;1.17;;
22320;SDS011;11328;53.928;18.522;2022-07-12T06:10:59;4.43;;;1.30;;
22320;SDS011;11328;53.928;18.522;2022-07-12T06:13:26;6.00;;;1.15;;
22320;SDS011;11328;53.928;18.522;2022-07-12T06:15:54;3.47;;;1.23;;
22320;SDS011;11328;53.928;18.522;2022-07-12T06:18:25;4.13;;;0.90;;
22320;SDS011;11328;53.928;18.522;2022-07-12T06:20:52;4.65;;;1.42;;
22320;SDS011;11328;53.928;18.522;2022-07-12T06:23:19;4.78;;;1.10;;
22320;SDS011;11328;53.928;18.522;2022-07-12T06:25:46;2.67;;;0.90;;
22320;SDS011;11328;53.928;18.522;2022-07-12T06:28:21;2.53;;;1.20;;
22320;SDS011;11328;53.928;18.522;2022-07-12T06:30:48;5.07;;;0.93;;
22320;SDS011;11328;53.928;18.522;2022-07-12T06:33:15;3.08;;;0.95;;
22320;SDS011;11328;53.928;18.522;2022-07-12T06:35:42;5.25;;;0.93;;
22320;SDS011;11328;53.928;18.522;2022-07-12T06:38:09;2.03;;;1.08;;
22320;SDS011;11328;53.928;18.522;2022-07-12T06:40:36;2.25;;;0.85;;
22320;SDS011;11328;53.928;18.522;2022-07-12T06:43:07;3.35;;;0.80;;
22320;SDS011;11328;53.928;18.522;2022-07-12T06:45:39;1.70;;;0.80;;
22320;SDS011;11328;53.928;18.522;2022-07-12T06:48:07;3.10;;;0.88;;
22320;SDS011;11328;53.928;18.522;2022-07-12T06:50:34;1.38;;;0.70;;
22320;SDS011;11328;53.928;18.522;2022-07-12T06:53:01;3.50;;;0.93;;
22320;SDS011;11328;53.928;18.522;2022-07-12T06:55:28;2.65;;;1.10;;
22320;SDS011;11328;53.928;18.522;2022-07-12T06:57:56;2.83;;;0.90;;
22320;SDS011;11328;53.928;18.522;2022-07-12T07:00:23;4.40;;;0.80;;
22320;SDS011;11328;53.928;18.522;2022-07-12T07:02:50;2.65;;;0.63;;
22320;SDS011;11328;53.928;18.522;2022-07-12T07:05:18;6.93;;;0.98;;
22320;SDS011;11328;53.928;18.522;2022-07-12T07:07:46;6.25;;;0.80;;
22320;SDS011;11328;53.928;18.522;2022-07-12T07:10:13;2.17;;;1.02;;
22320;SDS011;11328;53.928;18.522;2022-07-12T07:12:40;3.15;;;0.73;;
22320;SDS011;11328;53.928;18.522;2022-07-12T07:15:08;2.75;;;0.60;;
22320;SDS011;11328;53.928;18.522;2022-07-12T07:17:35;2.38;;;0.60;;
22320;SDS011;11328;53.928;18.522;2022-07-12T07:20:02;2.85;;;0.70;;
22320;SDS011;11328;53.928;18.522;2022-07-12T07:22:30;0.80;;;0.60;;
22320;SDS011;11328;53.928;18.522;2022-07-12T07:24:57;2.45;;;0.70;;
22320;SDS011;11328;53.928;18.522;2022-07-12T07:27:24;2.53;;;0.80;;
22320;SDS011;11328;53.928;18.522;2022-07-12T07:29:51;3.08;;;0.60;;
22320;SDS011;11328;53.928;18.522;2022-07-12T07:32:37;1.65;;;0.60;;
22320;SDS011;11328;53.928;18.522;2022-07-12T07:35:04;2.80;;;0.80;;
22320;SDS011;11328;53.928;18.522;2022-07-12T07:37:32;4.00;;;0.60;;
22320;SDS011;11328;53.928;18.522;2022-07-12T07:40:00;7.13;;;0.88;;
22320;SDS011;11328;53.928;18.522;2022-07-12T07:42:28;3.42;;;0.90;;
22320;SDS011;11328;53.928;18.522;2022-07-12T07:44:55;1.80;;;0.80;;
22320;SDS011;11328;53.928;18.522;2022-07-12T07:47:43;2.50;;;0.75;;
22320;SDS011;11328;53.928;18.522;2022-07-12T07:50:35;5.25;;;0.65;;
22320;SDS011;11328;53.928;18.522;2022-07-12T07:53:03;3.92;;;0.95;;
22320;SDS011;11328;53.928;18.522;2022-07-12T07:55:31;3.72;;;0.82;;
22320;SDS011;11328;53.928;18.522;2022-07-12T07:57:58;2.00;;;0.90;;
22320;SDS011;11328;53.928;18.522;2022-07-12T08:00:26;4.95;;;0.80;;
22320;SDS011;11328;53.928;18.522;2022-07-12T08:02:55;0.95;;;0.60;;
22320;SDS011;11328;53.928;18.522;2022-07-12T08:05:22;2.53;;;0.80;;
22320;SDS011;11328;53.928;18.522;2022-07-12T08:07:54;2.87;;;0.93;;
22320;SDS011;11328;53.928;18.522;2022-07-12T08:10:22;2.05;;;0.73;;
22320;SDS011;11328;53.928;18.522;2022-07-12T08:12:51;3.83;;;0.82;;
22320;SDS011;11328;53.928;18.522;2022-07-12T08:15:18;3.75;;;1.00;;
22320;SDS011;11328;53.928;18.522;2022-07-12T08:17:45;5.20;;;1.00;;
22320;SDS011;11328;53.928;18.522;2022-07-12T08:20:18;2.05;;;0.90;;
22320;SDS011;11328;53.928;18.522;2022-07-12T08:23:05;2.20;;;0.82;;
22320;SDS011;11328;53.928;18.522;2022-07-12T08:25:33;1.73;;;0.70;;
22320;SDS011;11328;53.928;18.522;2022-07-12T08:28:00;4.78;;;0.90;;
22320;SDS011;11328;53.928;18.522;2022-07-12T08:30:27;3.22;;;1.02;;
22320;SDS011;11328;53.928;18.522;2022-07-12T08:32:54;3.20;;;1.08;;
22320;SDS011;11328;53.928;18.522;2022-07-12T08:35:21;3.40;;;0.85;;
22320;SDS011;11328;53.928;18.522;2022-07-12T08:37:49;2.00;;;0.77;;
22320;SDS011;11328;53.928;18.522;2022-07-12T08:40:17;2.47;;;0.73;;
22320;SDS011;11328;53.928;18.522;2022-07-12T08:42:44;4.15;;;0.90;;
22320;SDS011;11328;53.928;18.522;2022-07-12T08:45:13;2.53;;;0.80;;
22320;SDS011;11328;53.928;18.522;2022-07-12T08:47:41;4.50;;;0.82;;
22320;SDS011;11328;53.928;18.522;2022-07-12T08:50:08;4.25;;;0.98;;
22320;SDS011;11328;53.928;18.522;2022-07-12T08:52:47;3.20;;;0.80;;
22320;SDS011;11328;53.928;18.522;2022-07-12T08:57:52;4.43;;;0.85;;
22320;SDS011;11328;53.928;18.522;2022-07-12T09:00:22;4.95;;;0.82;;
22320;SDS011;11328;53.928;18.522;2022-07-12T09:02:57;2.03;;;0.80;;
22320;SDS011;11328;53.928;18.522;2022-07-12T09:05:27;2.03;;;0.68;;
22320;SDS011;11328;53.928;18.522;2022-07-12T09:08:02;2.90;;;0.70;;
22320;SDS011;11328;53.928;18.522;2022-07-12T09:10:31;1.75;;;0.82;;
22320;SDS011;11328;53.928;18.522;2022-07-12T09:13:00;2.67;;;0.63;;
22320;SDS011;11328;53.928;18.522;2022-07-12T09:15:27;4.80;;;0.85;;
22320;SDS011;11328;53.928;18.522;2022-07-12T09:20:35;1.17;;;0.63;;
22320;SDS011;11328;53.928;18.522;2022-07-12T09:23:03;3.78;;;0.80;;
22320;SDS011;11328;53.928;18.522;2022-07-12T09:25:35;1.47;;;0.70;;
22320;SDS011;11328;53.928;18.522;2022-07-12T09:28:07;1.20;;;0.60;;
22320;SDS011;11328;53.928;18.522;2022-07-12T09:30:35;0.90;;;0.50;;
22320;SDS011;11328;53.928;18.522;2022-07-12T09:33:13;2.22;;;0.52;;
22320;SDS011;11328;53.928;18.522;2022-07-12T09:36:04;3.13;;;0.60;;
22320;SDS011;11328;53.928;18.522;2022-07-12T09:38:36;2.78;;;0.50;;
22320;SDS011;11328;53.928;18.522;2022-07-12T09:41:05;1.15;;;0.52;;
22320;SDS011;11328;53.928;18.522;2022-07-12T09:43:34;2.78;;;0.50;;
22320;SDS011;11328;53.928;18.522;2022-07-12T09:46:01;2.05;;;0.80;;
22320;SDS011;11328;53.928;18.522;2022-07-12T09:48:29;1.95;;;0.50;;
22320;SDS011;11328;53.928;18.522;2022-07-12T09:50:57;1.40;;;0.60;;
22320;SDS011;11328;53.928;18.522;2022-07-12T09:53:31;2.70;;;0.60;;
22320;SDS011;11328;53.928;18.522;2022-07-12T09:56:07;1.30;;;0.30;;
22320;SDS011;11328;53.928;18.522;2022-07-12T09:58:40;0.98;;;0.40;;
22320;SDS011;11328;53.928;18.522;2022-07-12T10:01:20;1.77;;;0.40;;
22320;SDS011;11328;53.928;18.522;2022-07-12T10:03:50;3.20;;;0.52;;
22320;SDS011;11328;53.928;18.522;2022-07-12T10:06:26;7.03;;;0.75;;
22320;SDS011;11328;53.928;18.522;2022-07-12T10:09:00;1.10;;;0.40;;
22320;SDS011;11328;53.928;18.522;2022-07-12T10:11:31;1.35;;;0.45;;
22320;SDS011;11328;53.928;18.522;2022-07-12T10:14:19;1.85;;;0.47;;
22320;SDS011;11328;53.928;18.522;2022-07-12T10:16:49;6.05;;;0.68;;
22320;SDS011;11328;53.928;18.522;2022-07-12T10:21:59;1.02;;;0.57;;
22320;SDS011;11328;53.928;18.522;2022-07-12T10:27:00;6.90;;;0.70;;
22320;SDS011;11328;53.928;18.522;2022-07-12T10:29:47;3.45;;;0.50;;
22320;SDS011;11328;53.928;18.522;2022-07-12T10:35:02;7.53;;;0.75;;
22320;SDS011;11328;53.928;18.522;2022-07-12T10:37:33;1.75;;;0.60;;
22320;SDS011;11328;53.928;18.522;2022-07-12T10:45:34;2.47;;;1.40;;
22320;SDS011;11328;53.928;18.522;2022-07-12T10:48:08;4.30;;;1.67;;
22320;SDS011;11328;53.928;18.522;2022-07-12T10:50:55;3.03;;;1.15;;
22320;SDS011;11328;53.928;18.522;2022-07-12T10:53:35;4.07;;;0.60;;
22320;SDS011;11328;53.928;18.522;2022-07-12T10:56:16;3.80;;;0.52;;
22320;SDS011;11328;53.928;18.522;2022-07-12T11:01:26;4.78;;;1.50;;
22320;SDS011;11328;53.928;18.522;2022-07-12T11:04:05;2.47;;;0.90;;
22320;SDS011;11328;53.928;18.522;2022-07-12T11:06:39;1.77;;;0.93;;
22320;SDS011;11328;53.928;18.522;2022-07-12T11:09:11;0.98;;;0.65;;
22320;SDS011;11328;53.928;18.522;2022-07-12T11:11:46;2.45;;;0.65;;
22320;SDS011;11328;53.928;18.522;2022-07-12T11:16:55;5.13;;;0.70;;
22320;SDS011;11328;53.928;18.522;2022-07-12T11:19:24;2.92;;;0.60;;
22320;SDS011;11328;53.928;18.522;2022-07-12T11:24:26;1.58;;;0.60;;
22320;SDS011;11328;53.928;18.522;2022-07-12T11:26:57;1.75;;;0.60;;
22320;SDS011;11328;53.928;18.522;2022-07-12T11:29:26;6.63;;;0.65;;
22320;SDS011;11328;53.928;18.522;2022-07-12T11:31:59;4.45;;;0.70;;
22320;SDS011;11328;53.928;18.522;2022-07-12T11:34:37;4.20;;;1.10;;
22320;SDS011;11328;53.928;18.522;2022-07-12T11:37:04;4.50;;;0.60;;
22320;SDS011;11328;53.928;18.522;2022-07-12T11:39:35;3.05;;;0.80;;
22320;SDS011;11328;53.928;18.522;2022-07-12T11:42:05;7.32;;;0.90;;
22320;SDS011;11328;53.928;18.522;2022-07-12T11:44:41;3.25;;;0.65;;
22320;SDS011;11328;53.928;18.522;2022-07-12T11:47:14;4.80;;;0.70;;
22320;SDS011;11328;53.928;18.522;2022-07-12T11:49:54;3.97;;;0.75;;
22320;SDS011;11328;53.928;18.522;2022-07-12T11:52:23;5.25;;;1.02;;
22320;SDS011;11328;53.928;18.522;2022-07-12T11:54:51;5.32;;;0.90;;
22320;SDS011;11328;53.928;18.522;2022-07-12T11:57:20;4.28;;;0.60;;
22320;SDS011;11328;53.928;18.522;2022-07-12T11:59:49;2.50;;;0.90;;
22320;SDS011;11328;53.928;18.522;2022-07-12T12:02:19;2.85;;;0.55;;
22320;SDS011;11328;53.928;18.522;2022-07-12T12:04:47;6.05;;;0.80;;
22320;SDS011;11328;53.928;18.522;2022-07-12T12:07:21;3.40;;;0.60;;
22320;SDS011;11328;53.928;18.522;2022-07-12T12:12:44;3.20;;;0.70;;
22320;SDS011;11328;53.928;18.522;2022-07-12T12:15:14;5.65;;;1.00;;
22320;SDS011;11328;53.928;18.522;2022-07-12T12:20:26;6.40;;;0.60;;
22320;SDS011;11328;53.928;18.522;2022-07-12T12:22:55;2.42;;;0.60;;
22320;SDS011;11328;53.928;18.522;2022-07-12T12:25:28;5.15;;;0.70;;
22320;SDS011;11328;53.928;18.522;2022-07-12T12:30:51;3.78;;;0.88;;
22320;SDS011;11328;53.928;18.522;2022-07-12T12:33:39;17.38;;;1.38;;
22320;SDS011;11328;53.928;18.522;2022-07-12T12:36:11;2.63;;;0.65;;
22320;SDS011;11328;53.928;18.522;2022-07-12T12:38:49;5.97;;;0.90;;
22320;SDS011;11328;53.928;18.522;2022-07-12T12:41:20;2.75;;;0.85;;
22320;SDS011;11328;53.928;18.522;2022-07-12T12:43:59;1.88;;;0.70;;
22320;SDS011;11328;53.928;18.522;2022-07-12T12:46:50;7.35;;;1.00;;
22320;SDS011;11328;53.928;18.522;2022-07-12T12:49:49;5.63;;;0.70;;
22320;SDS011;11328;53.928;18.522;2022-07-12T12:52:26;6.05;;;0.75;;
22320;SDS011;11328;53.928;18.522;2022-07-12T12:54:56;2.40;;;0.95;;
22320;SDS011;11328;53.928;18.522;2022-07-12T12:57:24;5.35;;;0.90;;
22320;SDS011;11328;53.928;18.522;2022-07-12T12:59:52;3.80;;;0.60;;
22320;SDS011;11328;53.928;18.522;2022-07-12T13:02:20;2.50;;;0.57;;
22320;SDS011;11328;53.928;18.522;2022-07-12T13:04:50;2.53;;;0.50;;
22320;SDS011;11328;53.928;18.522;2022-07-12T13:07:17;3.58;;;0.60;;
22320;SDS011;11328;53.928;18.522;2022-07-12T13:09:44;10.73;;;0.90;;
22320;SDS011;11328;53.928;18.522;2022-07-12T13:12:11;6.88;;;0.90;;
22320;SDS011;11328;53.928;18.522;2022-07-12T13:14:38;4.72;;;0.70;;
22320;SDS011;11328;53.928;18.522;2022-07-12T13:17:05;1.73;;;0.50;;
22320;SDS011;11328;53.928;18.522;2022-07-12T13:19:32;1.50;;;0.60;;
22320;SDS011;11328;53.928;18.522;2022-07-12T13:21:59;5.28;;;0.57;;
22320;SDS011;11328;53.928;18.522;2022-07-12T13:24:26;5.15;;;0.90;;
22320;SDS011;11328;53.928;18.522;2022-07-12T13:26:53;4.70;;;0.63;;
22320;SDS011;11328;53.928;18.522;2022-07-12T13:29:21;1.77;;;0.70;;
22320;SDS011;11328;53.928;18.522;2022-07-12T13:31:48;3.08;;;0.80;;
22320;SDS011;11328;53.928;18.522;2022-07-12T13:34:21;2.17;;;0.52;;
22320;SDS011;11328;53.928;18.522;2022-07-12T13:36:48;0.88;;;0.50;;
22320;SDS011;11328;53.928;18.522;2022-07-12T13:39:15;5.70;;;0.70;;
22320;SDS011;11328;53.928;18.522;2022-07-12T13:42:01;2.17;;;0.50;;
22320;SDS011;11328;53.928;18.522;2022-07-12T13:44:29;2.97;;;0.50;;
22320;SDS011;11328;53.928;18.522;2022-07-12T13:46:56;2.38;;;0.70;;
22320;SDS011;11328;53.928;18.522;2022-07-12T13:49:23;5.13;;;0.65;;
22320;SDS011;11328;53.928;18.522;2022-07-12T13:51:51;4.00;;;0.82;;
22320;SDS011;11328;53.928;18.522;2022-07-12T13:54:18;2.17;;;0.60;;
22320;SDS011;11328;53.928;18.522;2022-07-12T13:56:45;1.52;;;0.50;;
22320;SDS011;11328;53.928;18.522;2022-07-12T13:59:13;3.15;;;0.77;;
22320;SDS011;11328;53.928;18.522;2022-07-12T14:01:41;6.72;;;0.98;;
22320;SDS011;11328;53.928;18.522;2022-07-12T14:04:08;1.83;;;0.82;;
22320;SDS011;11328;53.928;18.522;2022-07-12T14:06:35;1.92;;;0.55;;
22320;SDS011;11328;53.928;18.522;2022-07-12T14:09:03;37.88;;;2.85;;
22320;SDS011;11328;53.928;18.522;2022-07-12T14:11:30;7.07;;;0.73;;
22320;SDS011;11328;53.928;18.522;2022-07-12T14:13:57;4.30;;;0.77;;
22320;SDS011;11328;53.928;18.522;2022-07-12T14:16:24;7.80;;;0.93;;
22320;SDS011;11328;53.928;18.522;2022-07-12T14:18:52;1.50;;;0.70;;
22320;SDS011;11328;53.928;18.522;2022-07-12T14:21:19;3.70;;;1.00;;
22320;SDS011;11328;53.928;18.522;2022-07-12T14:23:46;3.53;;;0.80;;
22320;SDS011;11328;53.928;18.522;2022-07-12T14:26:13;18.92;;;1.70;;
22320;SDS011;11328;53.928;18.522;2022-07-12T14:28:40;2.45;;;0.60;;
22320;SDS011;11328;53.928;18.522;2022-07-12T14:31:07;6.60;;;0.60;;
22320;SDS011;11328;53.928;18.522;2022-07-12T14:33:35;6.00;;;0.80;;
22320;SDS011;11328;53.928;18.522;2022-07-12T14:36:02;1.58;;;0.68;;
22320;SDS011;11328;53.928;18.522;2022-07-12T14:38:29;1.88;;;0.90;;
22320;SDS011;11328;53.928;18.522;2022-07-12T14:53:27;5.22;;;0.73;;
22320;SDS011;11328;53.928;18.522;2022-07-12T14:55:54;3.17;;;0.70;;
22320;SDS011;11328;53.928;18.522;2022-07-12T14:58:21;3.03;;;0.85;;
22320;SDS011;11328;53.928;18.522;2022-07-12T15:03:35;6.22;;;0.80;;
22320;SDS011;11328;53.928;18.522;2022-07-12T15:06:02;6.40;;;0.63;;
22320;SDS011;11328;53.928;18.522;2022-07-12T15:08:30;2.78;;;0.77;;
22320;SDS011;11328;53.928;18.522;2022-07-12T15:10:57;2.15;;;0.70;;
22320;SDS011;11328;53.928;18.522;2022-07-12T15:13:24;2.42;;;0.60;;
22320;SDS011;11328;53.928;18.522;2022-07-12T15:15:51;4.10;;;0.68;;
22320;SDS011;11328;53.928;18.522;2022-07-12T15:18:18;8.40;;;0.90;;
22320;SDS011;11328;53.928;18.522;2022-07-12T15:20:45;1.33;;;0.80;;
22320;SDS011;11328;53.928;18.522;2022-07-12T15:23:12;6.70;;;0.80;;
22320;SDS011;11328;53.928;18.522;2022-07-12T15:25:39;6.00;;;0.75;;
22320;SDS011;11328;53.928;18.522;2022-07-12T15:28:06;2.78;;;0.70;;
22320;SDS011;11328;53.928;18.522;2022-07-12T15:30:33;5.03;;;0.60;;
22320;SDS011;11328;53.928;18.522;2022-07-12T15:33:00;4.47;;;0.82;;